Aviation Digital Data Service (ADDS)

Output produced by METARs form (0154 UTC 19 October 2021)
found at http://www.aviationweather.gov/metar/data/
 
Forecast for: HUEN (ENTEBBE INTL ARP, UG)
Text: TAF HUEN 182300Z 1900/2006 VRB10KT 9999 FEW023 FEW025CB
Forecast period: 0000 to 0900 UTC 19 October 2021
Forecast type: FROM: standard forecast or significant change
Winds: variable direction winds at 12 MPH (10 knots; 5.1 m/s)
Visibility: 6 or more miles (10+ km)
Ceiling: at least 12,000 feet AGL
Clouds: few clouds at 2300 feet AGL
few clouds at 2500 feet AGL
Weather: no significant weather forecast for this period
Text: TEMPO 1902/1906 8000 -TSRA SCT018 FEW020CB BKN100
Forecast period: 0200 to 0600 UTC 19 October 2021
Forecast type: TEMPORARY: The following changes expected for less than half the time period
Visibility: 5 miles (8 km)
Ceiling: 10000 feet AGL
Clouds: scattered clouds at 1800 feet AGL
few clouds at 2000 feet AGL
broken clouds at 10000 feet AGL
Weather: -TSRA  (light rain associated with thunderstorm(s))
Text: BECMG 1909/1913 18010KT
Forecast period: 0900 UTC 19 October 2021 to 0600 UTC 20 October 2021
Forecast type: BECOMING: Conditions expected to become as follows by 1300 UTC 19 October 2021
Winds: from the S (180 degrees) at 12 MPH (10 knots; 5.1 m/s)
Visibility: 6 or more miles (10+ km)
Ceiling: at least 12,000 feet AGL
Clouds: few clouds at 2300 feet AGL
few clouds at 2500 feet AGL
Weather: no significant weather forecast for this period